Coronhach, Canada
Current Conditions -  °F | °C
As of 12:53 PM on Sunday 23 Nov 2014 (Local Time) from KOLF Reporting Station
Overcast Overcast  
Wind Chill: 13°   Ceiling: 2500
Heat Index: 27°   Visibility: 10mi
Dew Point: 17°   Wind: 21mph
Humidity: 66%   Direction: 320°NW
Pressure: 29.82"   Gusts: NA
Location:  49.11°N, 105.51°W
Report Text: KOLF 231853Z AUTO 32018KT 10SM OVC025 M03/M08 A2982 RMK AO2 PK WND 31026/1810 SLP120 T10281083
Loading
Personal Weather Stations






























Interactive Weather Map New forecast layout! Learn more

10-Day Weather Forecast

Advertisements
Track Severe Weather on mobile